sensor_id;sensor_type;location;lat;lon;timestamp;temperature;humidity
16901;DHT22;8567;52.540;6.434;2022-07-23T00:01:28;24.60;50.80
16901;DHT22;8567;52.540;6.434;2022-07-23T00:03:55;24.60;50.90
16901;DHT22;8567;52.540;6.434;2022-07-23T00:06:22;24.50;50.80
16901;DHT22;8567;52.540;6.434;2022-07-23T00:08:50;24.50;50.80
16901;DHT22;8567;52.540;6.434;2022-07-23T00:11:18;24.60;50.70
16901;DHT22;8567;52.540;6.434;2022-07-23T00:13:47;24.60;50.60
16901;DHT22;8567;52.540;6.434;2022-07-23T00:16:14;24.70;50.40
16901;DHT22;8567;52.540;6.434;2022-07-23T00:18:40;24.70;50.40
16901;DHT22;8567;52.540;6.434;2022-07-23T00:21:07;24.60;50.50
16901;DHT22;8567;52.540;6.434;2022-07-23T00:23:34;24.60;50.50
16901;DHT22;8567;52.540;6.434;2022-07-23T00:26:01;24.60;50.50
16901;DHT22;8567;52.540;6.434;2022-07-23T00:28:29;24.60;50.50
16901;DHT22;8567;52.540;6.434;2022-07-23T00:30:55;24.50;50.70
16901;DHT22;8567;52.540;6.434;2022-07-23T00:33:22;24.60;50.60
16901;DHT22;8567;52.540;6.434;2022-07-23T00:35:49;24.50;50.60
16901;DHT22;8567;52.540;6.434;2022-07-23T00:38:16;24.60;50.60
16901;DHT22;8567;52.540;6.434;2022-07-23T00:40:42;24.50;50.60
16901;DHT22;8567;52.540;6.434;2022-07-23T00:43:09;24.50;50.60
16901;DHT22;8567;52.540;6.434;2022-07-23T00:45:37;24.50;50.60
16901;DHT22;8567;52.540;6.434;2022-07-23T00:48:04;24.50;50.60
16901;DHT22;8567;52.540;6.434;2022-07-23T00:50:31;24.50;50.60
16901;DHT22;8567;52.540;6.434;2022-07-23T00:52:58;24.50;50.60
16901;DHT22;8567;52.540;6.434;2022-07-23T00:55:25;24.50;50.70
16901;DHT22;8567;52.540;6.434;2022-07-23T00:57:53;24.50;50.60
16901;DHT22;8567;52.540;6.434;2022-07-23T01:00:21;24.50;50.60
16901;DHT22;8567;52.540;6.434;2022-07-23T01:02:50;24.50;50.60
16901;DHT22;8567;52.540;6.434;2022-07-23T01:05:17;24.50;50.60
16901;DHT22;8567;52.540;6.434;2022-07-23T01:07:47;24.50;50.60
16901;DHT22;8567;52.540;6.434;2022-07-23T01:10:14;24.50;50.40
16901;DHT22;8567;52.540;6.434;2022-07-23T01:13:01;24.60;50.40
16901;DHT22;8567;52.540;6.434;2022-07-23T01:15:28;24.60;50.20
16901;DHT22;8567;52.540;6.434;2022-07-23T01:17:57;24.60;50.30
16901;DHT22;8567;52.540;6.434;2022-07-23T01:20:24;24.60;50.30
16901;DHT22;8567;52.540;6.434;2022-07-23T01:22:52;24.50;50.30
16901;DHT22;8567;52.540;6.434;2022-07-23T01:25:20;24.50;50.40
16901;DHT22;8567;52.540;6.434;2022-07-23T01:27:47;24.50;50.30
16901;DHT22;8567;52.540;6.434;2022-07-23T01:30:14;24.50;50.30
16901;DHT22;8567;52.540;6.434;2022-07-23T01:32:41;24.50;50.20
16901;DHT22;8567;52.540;6.434;2022-07-23T01:35:08;24.50;50.20
16901;DHT22;8567;52.540;6.434;2022-07-23T01:37:35;24.60;50.20
16901;DHT22;8567;52.540;6.434;2022-07-23T01:40:05;24.50;50.10
16901;DHT22;8567;52.540;6.434;2022-07-23T01:42:32;24.50;50.30
16901;DHT22;8567;52.540;6.434;2022-07-23T01:44:59;24.40;50.30
16901;DHT22;8567;52.540;6.434;2022-07-23T01:47:26;24.50;50.30
16901;DHT22;8567;52.540;6.434;2022-07-23T01:49:53;24.60;50.00
16901;DHT22;8567;52.540;6.434;2022-07-23T01:52:19;24.60;50.00
16901;DHT22;8567;52.540;6.434;2022-07-23T01:54:46;24.60;49.90
16901;DHT22;8567;52.540;6.434;2022-07-23T01:57:14;24.50;50.10
16901;DHT22;8567;52.540;6.434;2022-07-23T01:59:41;24.50;50.10
16901;DHT22;8567;52.540;6.434;2022-07-23T02:02:08;24.50;50.10
16901;DHT22;8567;52.540;6.434;2022-07-23T02:04:34;24.50;50.10
16901;DHT22;8567;52.540;6.434;2022-07-23T02:07:02;24.50;50.00
16901;DHT22;8567;52.540;6.434;2022-07-23T02:09:30;24.50;50.00
16901;DHT22;8567;52.540;6.434;2022-07-23T02:11:57;24.50;50.00
16901;DHT22;8567;52.540;6.434;2022-07-23T02:14:26;24.50;49.90
16901;DHT22;8567;52.540;6.434;2022-07-23T02:16:53;24.50;49.80
16901;DHT22;8567;52.540;6.434;2022-07-23T02:19:19;24.50;49.80
16901;DHT22;8567;52.540;6.434;2022-07-23T02:21:46;24.50;49.80
16901;DHT22;8567;52.540;6.434;2022-07-23T02:24:13;24.50;49.80
16901;DHT22;8567;52.540;6.434;2022-07-23T02:26:40;24.50;49.90
16901;DHT22;8567;52.540;6.434;2022-07-23T02:29:07;24.50;49.80
16901;DHT22;8567;52.540;6.434;2022-07-23T02:31:35;24.40;50.00
16901;DHT22;8567;52.540;6.434;2022-07-23T02:34:02;24.40;50.00
16901;DHT22;8567;52.540;6.434;2022-07-23T02:36:29;24.40;50.00
16901;DHT22;8567;52.540;6.434;2022-07-23T02:38:57;24.40;49.90
16901;DHT22;8567;52.540;6.434;2022-07-23T02:41:23;24.40;49.90
16901;DHT22;8567;52.540;6.434;2022-07-23T02:43:50;24.30;49.90
16901;DHT22;8567;52.540;6.434;2022-07-23T02:46:17;24.30;49.90
16901;DHT22;8567;52.540;6.434;2022-07-23T02:48:45;24.30;49.90
16901;DHT22;8567;52.540;6.434;2022-07-23T02:51:12;24.40;49.80
16901;DHT22;8567;52.540;6.434;2022-07-23T02:53:38;24.30;49.90
16901;DHT22;8567;52.540;6.434;2022-07-23T02:56:05;24.30;49.80
16901;DHT22;8567;52.540;6.434;2022-07-23T02:58:32;24.30;49.80
16901;DHT22;8567;52.540;6.434;2022-07-23T03:00:59;24.30;49.80
16901;DHT22;8567;52.540;6.434;2022-07-23T03:03:26;24.30;49.80
16901;DHT22;8567;52.540;6.434;2022-07-23T03:05:54;24.30;49.80
16901;DHT22;8567;52.540;6.434;2022-07-23T03:08:21;24.30;49.70
16901;DHT22;8567;52.540;6.434;2022-07-23T03:10:47;24.30;49.70
16901;DHT22;8567;52.540;6.434;2022-07-23T03:13:14;24.30;49.70
16901;DHT22;8567;52.540;6.434;2022-07-23T03:15:41;24.30;49.60
16901;DHT22;8567;52.540;6.434;2022-07-23T03:18:07;24.40;49.50
16901;DHT22;8567;52.540;6.434;2022-07-23T03:20:34;24.40;49.60
16901;DHT22;8567;52.540;6.434;2022-07-23T03:23:02;24.30;49.60
16901;DHT22;8567;52.540;6.434;2022-07-23T03:25:29;24.30;49.50
16901;DHT22;8567;52.540;6.434;2022-07-23T03:27:56;24.30;49.60
16901;DHT22;8567;52.540;6.434;2022-07-23T03:30:23;24.30;49.60
16901;DHT22;8567;52.540;6.434;2022-07-23T03:32:49;24.20;49.70
16901;DHT22;8567;52.540;6.434;2022-07-23T03:35:16;24.20;49.60
16901;DHT22;8567;52.540;6.434;2022-07-23T03:37:43;24.20;49.70
16901;DHT22;8567;52.540;6.434;2022-07-23T03:40:11;24.20;49.70
16901;DHT22;8567;52.540;6.434;2022-07-23T03:42:38;24.20;49.60
16901;DHT22;8567;52.540;6.434;2022-07-23T03:45:08;24.20;49.60
16901;DHT22;8567;52.540;6.434;2022-07-23T03:47:35;24.20;49.60
16901;DHT22;8567;52.540;6.434;2022-07-23T03:50:02;24.20;49.60
16901;DHT22;8567;52.540;6.434;2022-07-23T03:52:29;24.20;49.50
16901;DHT22;8567;52.540;6.434;2022-07-23T03:54:55;24.20;49.50
16901;DHT22;8567;52.540;6.434;2022-07-23T03:57:23;24.20;49.50
16901;DHT22;8567;52.540;6.434;2022-07-23T03:59:50;24.20;49.50
16901;DHT22;8567;52.540;6.434;2022-07-23T04:02:17;24.20;49.50
16901;DHT22;8567;52.540;6.434;2022-07-23T04:04:44;24.20;49.40
16901;DHT22;8567;52.540;6.434;2022-07-23T04:07:10;24.20;49.40
16901;DHT22;8567;52.540;6.434;2022-07-23T04:09:37;24.20;49.40
16901;DHT22;8567;52.540;6.434;2022-07-23T04:12:06;24.20;49.20
16901;DHT22;8567;52.540;6.434;2022-07-23T04:14:34;24.30;49.10
16901;DHT22;8567;52.540;6.434;2022-07-23T04:17:02;24.30;49.10
16901;DHT22;8567;52.540;6.434;2022-07-23T04:19:28;24.30;49.10
16901;DHT22;8567;52.540;6.434;2022-07-23T04:21:56;24.30;49.10
16901;DHT22;8567;52.540;6.434;2022-07-23T04:24:23;24.20;49.10
16901;DHT22;8567;52.540;6.434;2022-07-23T04:26:50;24.20;49.10
16901;DHT22;8567;52.540;6.434;2022-07-23T04:29:16;24.20;49.20
16901;DHT22;8567;52.540;6.434;2022-07-23T04:31:45;24.10;49.20
16901;DHT22;8567;52.540;6.434;2022-07-23T04:34:12;24.10;49.20
16901;DHT22;8567;52.540;6.434;2022-07-23T04:36:38;24.10;49.20
16901;DHT22;8567;52.540;6.434;2022-07-23T04:39:05;24.10;49.30
16901;DHT22;8567;52.540;6.434;2022-07-23T04:41:32;24.10;49.30
16901;DHT22;8567;52.540;6.434;2022-07-23T04:43:59;24.10;49.20
16901;DHT22;8567;52.540;6.434;2022-07-23T04:46:26;24.10;49.20
16901;DHT22;8567;52.540;6.434;2022-07-23T04:48:54;24.10;49.20
16901;DHT22;8567;52.540;6.434;2022-07-23T04:51:21;24.10;49.20
16901;DHT22;8567;52.540;6.434;2022-07-23T04:53:48;24.10;49.30
16901;DHT22;8567;52.540;6.434;2022-07-23T04:56:15;24.10;49.30
16901;DHT22;8567;52.540;6.434;2022-07-23T04:58:41;24.10;49.30
16901;DHT22;8567;52.540;6.434;2022-07-23T05:01:08;24.10;49.30
16901;DHT22;8567;52.540;6.434;2022-07-23T05:03:35;24.10;49.30
16901;DHT22;8567;52.540;6.434;2022-07-23T05:06:04;24.10;49.20
16901;DHT22;8567;52.540;6.434;2022-07-23T05:08:30;24.10;49.20
16901;DHT22;8567;52.540;6.434;2022-07-23T05:10:57;24.20;49.10
16901;DHT22;8567;52.540;6.434;2022-07-23T05:13:24;24.20;48.90
16901;DHT22;8567;52.540;6.434;2022-07-23T05:15:51;24.20;48.90
16901;DHT22;8567;52.540;6.434;2022-07-23T05:18:18;24.20;49.00
16901;DHT22;8567;52.540;6.434;2022-07-23T05:20:45;24.20;49.00
16901;DHT22;8567;52.540;6.434;2022-07-23T05:23:13;24.20;49.10
16901;DHT22;8567;52.540;6.434;2022-07-23T05:25:40;24.10;49.10
16901;DHT22;8567;52.540;6.434;2022-07-23T05:28:07;24.10;49.20
16901;DHT22;8567;52.540;6.434;2022-07-23T05:30:34;24.10;49.20
16901;DHT22;8567;52.540;6.434;2022-07-23T05:33:00;24.20;49.20
16901;DHT22;8567;52.540;6.434;2022-07-23T05:35:27;24.20;49.10
16901;DHT22;8567;52.540;6.434;2022-07-23T05:37:54;24.10;49.10
16901;DHT22;8567;52.540;6.434;2022-07-23T05:40:22;24.10;49.20
16901;DHT22;8567;52.540;6.434;2022-07-23T05:42:48;24.10;49.20
16901;DHT22;8567;52.540;6.434;2022-07-23T05:45:15;24.10;49.30
16901;DHT22;8567;52.540;6.434;2022-07-23T05:47:43;24.10;49.30
16901;DHT22;8567;52.540;6.434;2022-07-23T05:50:11;24.10;49.30
16901;DHT22;8567;52.540;6.434;2022-07-23T05:52:39;24.10;49.30
16901;DHT22;8567;52.540;6.434;2022-07-23T05:55:06;24.10;49.30
16901;DHT22;8567;52.540;6.434;2022-07-23T05:57:35;24.10;49.40
16901;DHT22;8567;52.540;6.434;2022-07-23T06:00:03;24.10;49.40
16901;DHT22;8567;52.540;6.434;2022-07-23T06:02:30;24.10;49.40
16901;DHT22;8567;52.540;6.434;2022-07-23T06:04:57;24.10;49.50
16901;DHT22;8567;52.540;6.434;2022-07-23T06:07:23;24.10;49.50
16901;DHT22;8567;52.540;6.434;2022-07-23T06:09:50;24.10;49.50
16901;DHT22;8567;52.540;6.434;2022-07-23T06:12:17;24.20;49.40
16901;DHT22;8567;52.540;6.434;2022-07-23T06:14:46;24.30;49.30
16901;DHT22;8567;52.540;6.434;2022-07-23T06:17:14;24.30;49.20
16901;DHT22;8567;52.540;6.434;2022-07-23T06:19:42;24.30;49.20
16901;DHT22;8567;52.540;6.434;2022-07-23T06:22:09;24.30;49.20
16901;DHT22;8567;52.540;6.434;2022-07-23T06:24:35;24.30;49.20
16901;DHT22;8567;52.540;6.434;2022-07-23T06:27:02;24.30;49.30
16901;DHT22;8567;52.540;6.434;2022-07-23T06:29:29;24.30;49.50
16901;DHT22;8567;52.540;6.434;2022-07-23T06:31:57;24.30;49.50
16901;DHT22;8567;52.540;6.434;2022-07-23T06:34:24;24.30;49.50
16901;DHT22;8567;52.540;6.434;2022-07-23T06:36:51;24.30;49.50
16901;DHT22;8567;52.540;6.434;2022-07-23T06:39:18;24.30;49.50
16901;DHT22;8567;52.540;6.434;2022-07-23T06:41:45;24.20;49.60
16901;DHT22;8567;52.540;6.434;2022-07-23T06:44:12;24.30;49.50
16901;DHT22;8567;52.540;6.434;2022-07-23T06:46:39;24.30;49.50
16901;DHT22;8567;52.540;6.434;2022-07-23T06:49:07;24.40;49.40
16901;DHT22;8567;52.540;6.434;2022-07-23T06:51:34;24.30;49.50
16901;DHT22;8567;52.540;6.434;2022-07-23T06:54:01;24.30;49.50
16901;DHT22;8567;52.540;6.434;2022-07-23T06:56:28;24.30;49.50
16901;DHT22;8567;52.540;6.434;2022-07-23T06:58:54;24.30;49.50
16901;DHT22;8567;52.540;6.434;2022-07-23T07:01:21;24.30;49.50
16901;DHT22;8567;52.540;6.434;2022-07-23T07:03:48;24.30;49.60
16901;DHT22;8567;52.540;6.434;2022-07-23T07:06:16;24.30;49.60
16901;DHT22;8567;52.540;6.434;2022-07-23T07:08:43;24.30;49.60
16901;DHT22;8567;52.540;6.434;2022-07-23T07:11:10;24.40;49.50
16901;DHT22;8567;52.540;6.434;2022-07-23T07:13:37;24.40;49.40
16901;DHT22;8567;52.540;6.434;2022-07-23T07:16:04;24.60;49.10
16901;DHT22;8567;52.540;6.434;2022-07-23T07:18:31;24.50;49.20
16901;DHT22;8567;52.540;6.434;2022-07-23T07:20:58;24.50;49.30
16901;DHT22;8567;52.540;6.434;2022-07-23T07:23:26;24.50;49.40
16901;DHT22;8567;52.540;6.434;2022-07-23T07:25:53;24.50;49.20
16901;DHT22;8567;52.540;6.434;2022-07-23T07:28:19;24.50;49.30
16901;DHT22;8567;52.540;6.434;2022-07-23T07:30:46;24.50;49.30
16901;DHT22;8567;52.540;6.434;2022-07-23T07:33:13;24.50;49.30
16901;DHT22;8567;52.540;6.434;2022-07-23T07:35:40;24.50;49.30
16901;DHT22;8567;52.540;6.434;2022-07-23T07:38:06;24.50;49.40
16901;DHT22;8567;52.540;6.434;2022-07-23T07:40:34;24.50;49.40
16901;DHT22;8567;52.540;6.434;2022-07-23T07:43:01;24.50;49.30
16901;DHT22;8567;52.540;6.434;2022-07-23T07:45:28;24.60;49.20
16901;DHT22;8567;52.540;6.434;2022-07-23T07:47:55;24.50;49.40
16901;DHT22;8567;52.540;6.434;2022-07-23T07:50:22;24.50;49.40
16901;DHT22;8567;52.540;6.434;2022-07-23T07:52:49;24.50;49.50
16901;DHT22;8567;52.540;6.434;2022-07-23T07:55:16;24.40;49.60
16901;DHT22;8567;52.540;6.434;2022-07-23T07:57:44;24.50;49.60
16901;DHT22;8567;52.540;6.434;2022-07-23T08:00:11;24.50;49.50
16901;DHT22;8567;52.540;6.434;2022-07-23T08:02:42;24.50;49.50
16901;DHT22;8567;52.540;6.434;2022-07-23T08:05:09;24.50;49.50
16901;DHT22;8567;52.540;6.434;2022-07-23T08:07:36;24.50;49.50
16901;DHT22;8567;52.540;6.434;2022-07-23T08:10:05;24.50;49.50
16901;DHT22;8567;52.540;6.434;2022-07-23T08:12:40;24.60;49.40
16901;DHT22;8567;52.540;6.434;2022-07-23T08:15:09;24.70;49.20
16901;DHT22;8567;52.540;6.434;2022-07-23T08:17:36;24.70;49.00
16901;DHT22;8567;52.540;6.434;2022-07-23T08:20:03;24.80;48.90
16901;DHT22;8567;52.540;6.434;2022-07-23T08:22:44;24.80;49.00
16901;DHT22;8567;52.540;6.434;2022-07-23T08:25:11;24.80;49.10
16901;DHT22;8567;52.540;6.434;2022-07-23T08:27:38;24.70;49.10
16901;DHT22;8567;52.540;6.434;2022-07-23T08:30:06;24.70;49.10
16901;DHT22;8567;52.540;6.434;2022-07-23T08:32:48;24.70;49.10
16901;DHT22;8567;52.540;6.434;2022-07-23T08:35:15;24.70;49.20
16901;DHT22;8567;52.540;6.434;2022-07-23T08:37:42;24.70;49.20
16901;DHT22;8567;52.540;6.434;2022-07-23T08:40:10;24.70;49.30
16901;DHT22;8567;52.540;6.434;2022-07-23T08:42:37;24.60;49.30
16901;DHT22;8567;52.540;6.434;2022-07-23T08:45:07;24.60;49.40
16901;DHT22;8567;52.540;6.434;2022-07-23T08:47:37;24.50;49.50
16901;DHT22;8567;52.540;6.434;2022-07-23T08:50:04;24.50;49.60
16901;DHT22;8567;52.540;6.434;2022-07-23T08:52:33;24.50;49.60
16901;DHT22;8567;52.540;6.434;2022-07-23T08:55:00;24.50;49.60
16901;DHT22;8567;52.540;6.434;2022-07-23T08:57:27;24.50;49.60
16901;DHT22;8567;52.540;6.434;2022-07-23T08:59:54;24.50;49.70
16901;DHT22;8567;52.540;6.434;2022-07-23T09:02:21;24.50;49.60
16901;DHT22;8567;52.540;6.434;2022-07-23T09:04:49;24.60;49.60
16901;DHT22;8567;52.540;6.434;2022-07-23T09:07:16;24.70;49.30
16901;DHT22;8567;52.540;6.434;2022-07-23T09:09:43;24.90;48.80
16901;DHT22;8567;52.540;6.434;2022-07-23T09:12:10;24.90;48.80
16901;DHT22;8567;52.540;6.434;2022-07-23T09:14:38;24.90;48.70
16901;DHT22;8567;52.540;6.434;2022-07-23T09:17:13;24.80;48.70
16901;DHT22;8567;52.540;6.434;2022-07-23T09:19:41;24.70;48.60
16901;DHT22;8567;52.540;6.434;2022-07-23T09:22:20;24.70;48.60
16901;DHT22;8567;52.540;6.434;2022-07-23T09:25:09;24.70;48.50
16901;DHT22;8567;52.540;6.434;2022-07-23T09:27:52;24.60;48.90
16901;DHT22;8567;52.540;6.434;2022-07-23T09:30:21;24.60;48.70
16901;DHT22;8567;52.540;6.434;2022-07-23T09:33:05;24.70;48.20
16901;DHT22;8567;52.540;6.434;2022-07-23T09:35:51;24.60;48.30
16901;DHT22;8567;52.540;6.434;2022-07-23T09:38:21;24.60;48.20
16901;DHT22;8567;52.540;6.434;2022-07-23T09:41:05;24.50;48.30
16901;DHT22;8567;52.540;6.434;2022-07-23T09:43:32;24.60;48.00
16901;DHT22;8567;52.540;6.434;2022-07-23T09:46:17;24.50;47.90
16901;DHT22;8567;52.540;6.434;2022-07-23T09:48:44;24.50;48.10
16901;DHT22;8567;52.540;6.434;2022-07-23T09:51:11;24.50;48.30
16901;DHT22;8567;52.540;6.434;2022-07-23T09:53:39;24.50;48.00
16901;DHT22;8567;52.540;6.434;2022-07-23T09:56:07;24.50;47.80
16901;DHT22;8567;52.540;6.434;2022-07-23T09:58:36;24.40;48.00
16901;DHT22;8567;52.540;6.434;2022-07-23T10:01:11;24.30;47.90
16901;DHT22;8567;52.540;6.434;2022-07-23T10:03:39;24.30;47.90
16901;DHT22;8567;52.540;6.434;2022-07-23T10:06:08;24.30;48.20
16901;DHT22;8567;52.540;6.434;2022-07-23T10:08:35;24.30;48.00
16901;DHT22;8567;52.540;6.434;2022-07-23T10:11:03;24.20;47.90
16901;DHT22;8567;52.540;6.434;2022-07-23T10:13:30;24.30;47.90
16901;DHT22;8567;52.540;6.434;2022-07-23T10:16:11;24.30;47.90
16901;DHT22;8567;52.540;6.434;2022-07-23T10:18:38;24.20;47.90
16901;DHT22;8567;52.540;6.434;2022-07-23T10:21:07;24.20;48.10
16901;DHT22;8567;52.540;6.434;2022-07-23T10:23:39;24.20;48.10
16901;DHT22;8567;52.540;6.434;2022-07-23T10:26:14;24.20;48.20
16901;DHT22;8567;52.540;6.434;2022-07-23T10:28:58;24.20;48.00
16901;DHT22;8567;52.540;6.434;2022-07-23T10:31:35;24.20;48.20
16901;DHT22;8567;52.540;6.434;2022-07-23T10:34:12;24.20;47.90
16901;DHT22;8567;52.540;6.434;2022-07-23T10:36:46;24.10;47.60
16901;DHT22;8567;52.540;6.434;2022-07-23T10:39:17;24.00;47.90
16901;DHT22;8567;52.540;6.434;2022-07-23T10:41:47;24.10;48.20
16901;DHT22;8567;52.540;6.434;2022-07-23T10:44:16;24.10;47.90
16901;DHT22;8567;52.540;6.434;2022-07-23T10:46:55;24.10;47.70
16901;DHT22;8567;52.540;6.434;2022-07-23T10:49:29;24.20;47.80
16901;DHT22;8567;52.540;6.434;2022-07-23T10:52:15;24.20;47.60
16901;DHT22;8567;52.540;6.434;2022-07-23T10:54:43;24.20;47.30
16901;DHT22;8567;52.540;6.434;2022-07-23T10:57:12;24.20;47.40
16901;DHT22;8567;52.540;6.434;2022-07-23T11:00:20;24.20;47.40
16901;DHT22;8567;52.540;6.434;2022-07-23T11:02:49;24.10;47.50
16901;DHT22;8567;52.540;6.434;2022-07-23T11:05:18;24.00;47.50
16901;DHT22;8567;52.540;6.434;2022-07-23T11:10:55;24.00;47.00
16901;DHT22;8567;52.540;6.434;2022-07-23T11:13:44;24.00;47.40
16901;DHT22;8567;52.540;6.434;2022-07-23T11:16:19;24.10;47.40
16901;DHT22;8567;52.540;6.434;2022-07-23T11:19:07;24.10;47.30
16901;DHT22;8567;52.540;6.434;2022-07-23T11:24:23;24.00;47.30
16901;DHT22;8567;52.540;6.434;2022-07-23T11:26:55;23.90;47.10
16901;DHT22;8567;52.540;6.434;2022-07-23T11:29:46;23.90;47.10
16901;DHT22;8567;52.540;6.434;2022-07-23T11:32:31;23.90;47.30
16901;DHT22;8567;52.540;6.434;2022-07-23T11:35:00;24.10;48.40
16901;DHT22;8567;52.540;6.434;2022-07-23T11:37:33;24.20;47.30
16901;DHT22;8567;52.540;6.434;2022-07-23T11:40:02;24.20;47.30
16901;DHT22;8567;52.540;6.434;2022-07-23T11:42:29;24.20;47.30
16901;DHT22;8567;52.540;6.434;2022-07-23T11:44:57;24.10;47.10
16901;DHT22;8567;52.540;6.434;2022-07-23T11:47:26;24.00;47.70
16901;DHT22;8567;52.540;6.434;2022-07-23T11:49:54;24.20;46.60
16901;DHT22;8567;52.540;6.434;2022-07-23T11:52:21;24.20;46.40
16901;DHT22;8567;52.540;6.434;2022-07-23T11:54:50;24.10;46.50
16901;DHT22;8567;52.540;6.434;2022-07-23T11:57:18;24.10;46.60
16901;DHT22;8567;52.540;6.434;2022-07-23T11:59:46;24.10;46.50
16901;DHT22;8567;52.540;6.434;2022-07-23T12:02:15;24.00;46.60
16901;DHT22;8567;52.540;6.434;2022-07-23T12:04:43;24.00;46.40
16901;DHT22;8567;52.540;6.434;2022-07-23T12:07:27;24.10;46.50
16901;DHT22;8567;52.540;6.434;2022-07-23T12:09:55;24.10;46.40
16901;DHT22;8567;52.540;6.434;2022-07-23T12:12:22;24.30;46.40
16901;DHT22;8567;52.540;6.434;2022-07-23T12:14:51;24.40;46.10
16901;DHT22;8567;52.540;6.434;2022-07-23T12:17:20;24.40;45.90
16901;DHT22;8567;52.540;6.434;2022-07-23T12:19:48;24.50;46.00
16901;DHT22;8567;52.540;6.434;2022-07-23T12:22:15;24.50;46.10
16901;DHT22;8567;52.540;6.434;2022-07-23T12:24:56;24.50;46.20
16901;DHT22;8567;52.540;6.434;2022-07-23T12:27:23;24.50;46.20
16901;DHT22;8567;52.540;6.434;2022-07-23T12:29:51;24.60;46.30
16901;DHT22;8567;52.540;6.434;2022-07-23T12:32:21;24.60;46.20
16901;DHT22;8567;52.540;6.434;2022-07-23T12:34:49;24.50;46.40
16901;DHT22;8567;52.540;6.434;2022-07-23T12:37:29;24.40;46.30
16901;DHT22;8567;52.540;6.434;2022-07-23T12:39:57;24.30;46.10
16901;DHT22;8567;52.540;6.434;2022-07-23T12:42:24;24.30;46.10
16901;DHT22;8567;52.540;6.434;2022-07-23T12:45:07;24.30;46.20
16901;DHT22;8567;52.540;6.434;2022-07-23T12:47:52;24.40;46.60
16901;DHT22;8567;52.540;6.434;2022-07-23T12:50:54;24.60;46.10
16901;DHT22;8567;52.540;6.434;2022-07-23T12:53:23;24.80;45.80
16901;DHT22;8567;52.540;6.434;2022-07-23T12:55:58;25.00;45.60
16901;DHT22;8567;52.540;6.434;2022-07-23T12:58:25;25.10;45.40
16901;DHT22;8567;52.540;6.434;2022-07-23T13:01:01;25.10;45.40
16901;DHT22;8567;52.540;6.434;2022-07-23T13:03:32;25.10;45.40
16901;DHT22;8567;52.540;6.434;2022-07-23T13:06:01;25.10;45.50
16901;DHT22;8567;52.540;6.434;2022-07-23T13:08:29;25.10;45.70
16901;DHT22;8567;52.540;6.434;2022-07-23T13:10:57;25.20;45.60
16901;DHT22;8567;52.540;6.434;2022-07-23T13:13:26;25.20;45.60
16901;DHT22;8567;52.540;6.434;2022-07-23T13:15:54;25.30;45.50
16901;DHT22;8567;52.540;6.434;2022-07-23T13:18:21;25.30;45.70
16901;DHT22;8567;52.540;6.434;2022-07-23T13:20:50;25.30;45.80
16901;DHT22;8567;52.540;6.434;2022-07-23T13:23:17;25.30;45.90
16901;DHT22;8567;52.540;6.434;2022-07-23T13:25:45;25.30;46.00
16901;DHT22;8567;52.540;6.434;2022-07-23T13:28:12;25.20;46.10
16901;DHT22;8567;52.540;6.434;2022-07-23T13:30:39;25.40;46.00
16901;DHT22;8567;52.540;6.434;2022-07-23T13:33:06;25.30;46.00
16901;DHT22;8567;52.540;6.434;2022-07-23T13:35:34;25.20;46.30
16901;DHT22;8567;52.540;6.434;2022-07-23T13:38:03;25.20;46.40
16901;DHT22;8567;52.540;6.434;2022-07-23T13:40:30;25.20;46.40
16901;DHT22;8567;52.540;6.434;2022-07-23T13:42:57;25.20;46.60
16901;DHT22;8567;52.540;6.434;2022-07-23T13:45:24;25.20;46.60
16901;DHT22;8567;52.540;6.434;2022-07-23T13:47:50;25.30;46.60
16901;DHT22;8567;52.540;6.434;2022-07-23T13:50:17;25.20;46.60
16901;DHT22;8567;52.540;6.434;2022-07-23T13:52:44;25.20;46.70
16901;DHT22;8567;52.540;6.434;2022-07-23T13:55:12;25.30;46.60
16901;DHT22;8567;52.540;6.434;2022-07-23T13:57:39;25.30;46.70
16901;DHT22;8567;52.540;6.434;2022-07-23T14:00:06;25.40;46.70
16901;DHT22;8567;52.540;6.434;2022-07-23T14:02:36;25.40;46.70
16901;DHT22;8567;52.540;6.434;2022-07-23T14:05:05;25.50;46.60
16901;DHT22;8567;52.540;6.434;2022-07-23T14:07:31;25.50;46.50
16901;DHT22;8567;52.540;6.434;2022-07-23T14:09:59;25.40;46.90
16901;DHT22;8567;52.540;6.434;2022-07-23T14:12:27;25.50;46.80
16901;DHT22;8567;52.540;6.434;2022-07-23T14:14:54;25.60;46.50
16901;DHT22;8567;52.540;6.434;2022-07-23T14:17:21;25.60;46.50
16901;DHT22;8567;52.540;6.434;2022-07-23T14:19:48;25.60;46.70
16901;DHT22;8567;52.540;6.434;2022-07-23T14:22:14;25.50;46.90
16901;DHT22;8567;52.540;6.434;2022-07-23T14:24:41;25.60;46.80
16901;DHT22;8567;52.540;6.434;2022-07-23T14:27:08;25.60;46.80
16901;DHT22;8567;52.540;6.434;2022-07-23T14:29:36;25.50;46.90
16901;DHT22;8567;52.540;6.434;2022-07-23T14:32:03;25.60;47.00
16901;DHT22;8567;52.540;6.434;2022-07-23T14:34:30;25.60;47.00
16901;DHT22;8567;52.540;6.434;2022-07-23T14:36:58;25.60;47.10
16901;DHT22;8567;52.540;6.434;2022-07-23T14:39:25;25.60;47.10
16901;DHT22;8567;52.540;6.434;2022-07-23T14:41:52;25.60;47.10
16901;DHT22;8567;52.540;6.434;2022-07-23T14:44:19;25.60;47.30
16901;DHT22;8567;52.540;6.434;2022-07-23T14:46:47;25.50;47.50
16901;DHT22;8567;52.540;6.434;2022-07-23T14:49:14;25.60;47.40
16901;DHT22;8567;52.540;6.434;2022-07-23T14:51:41;25.60;47.40
16901;DHT22;8567;52.540;6.434;2022-07-23T14:54:08;25.60;47.50
16901;DHT22;8567;52.540;6.434;2022-07-23T14:56:35;25.60;47.50
16901;DHT22;8567;52.540;6.434;2022-07-23T14:59:02;25.60;47.60
16901;DHT22;8567;52.540;6.434;2022-07-23T15:01:29;25.60;47.60
16901;DHT22;8567;52.540;6.434;2022-07-23T15:03:57;25.70;47.50
16901;DHT22;8567;52.540;6.434;2022-07-23T15:06:24;25.70;47.30
16901;DHT22;8567;52.540;6.434;2022-07-23T15:08:51;25.70;47.40
16901;DHT22;8567;52.540;6.434;2022-07-23T15:11:18;25.80;47.30
16901;DHT22;8567;52.540;6.434;2022-07-23T15:13:45;25.90;47.10
16901;DHT22;8567;52.540;6.434;2022-07-23T15:16:12;26.00;47.40
16901;DHT22;8567;52.540;6.434;2022-07-23T15:18:39;26.00;47.10
16901;DHT22;8567;52.540;6.434;2022-07-23T15:21:07;26.00;47.10
16901;DHT22;8567;52.540;6.434;2022-07-23T15:23:34;26.00;47.50
16901;DHT22;8567;52.540;6.434;2022-07-23T15:26:02;26.00;47.30
16901;DHT22;8567;52.540;6.434;2022-07-23T15:28:29;26.10;47.00
16901;DHT22;8567;52.540;6.434;2022-07-23T15:30:56;26.10;47.00
16901;DHT22;8567;52.540;6.434;2022-07-23T15:33:22;26.10;47.00
16901;DHT22;8567;52.540;6.434;2022-07-23T15:35:49;26.10;47.20
16901;DHT22;8567;52.540;6.434;2022-07-23T15:38:19;26.10;47.30
16901;DHT22;8567;52.540;6.434;2022-07-23T15:40:46;26.10;47.20
16901;DHT22;8567;52.540;6.434;2022-07-23T15:43:12;26.10;47.20
16901;DHT22;8567;52.540;6.434;2022-07-23T15:45:39;26.00;47.60
16901;DHT22;8567;52.540;6.434;2022-07-23T15:48:06;26.10;47.70
16901;DHT22;8567;52.540;6.434;2022-07-23T15:50:34;26.10;47.80
16901;DHT22;8567;52.540;6.434;2022-07-23T15:53:00;26.10;47.90
16901;DHT22;8567;52.540;6.434;2022-07-23T15:55:28;26.10;48.00
16901;DHT22;8567;52.540;6.434;2022-07-23T15:57:56;26.10;48.00
16901;DHT22;8567;52.540;6.434;2022-07-23T16:00:23;26.10;48.00